SD State University, South Dakota
Current Conditions -  °F | °C
As of 3:35 PM on Monday 24 Nov 2014 (Local Time) from KMDS Reporting Station
Overcast Overcast  
Wind Chill:   Ceiling: 2200
Heat Index: 23°   Visibility: 10mi
Dew Point: 14°   Wind: 30mph
Humidity: 68%   Direction: 340°NNW
Pressure: 29.82"   Gusts: 37mph
Location:  44.3116°N, 96.7981°W
Report Text: KMDS 242135Z AUTO 34026G32KT 10SM OVC022 M05/M10 A2982 RMK AO2
Loading
Personal Weather Stations






























Interactive Weather Map New forecast layout! Learn more

10-Day Weather Forecast

Advertisements
Track Severe Weather on mobile